Time;durP1;ratioP1;P1;durP2;ratioP2;P2;SDS_P1;SDS_P2;PMS_P1;PMS_P2;Temp;Humidity;BMP_temperature;BMP_pressure;BME280_temperature;BME280_humidity;BME280_pressure;Samples;Min_cycle;Max_cycle;Signal;HPM_P1;HPM_P2
2020/12/21 00:01:57;;;;;;;5.32;3.42;;;;;;;17.21;61.29;101882.34;4808528;29;20550;-78
2020/12/21 00:04:23;;;;;;;5.70;3.58;;;;;;;17.20;61.35;101888.41;4823102;29;20524;-78
2020/12/21 00:06:52;;;;;;;6.68;3.40;;;;;;;17.20;61.51;101878.91;4822796;29;20090;-78
2020/12/21 00:09:18;;;;;;;4.57;3.30;;;;;;;17.19;61.02;101873.66;4808596;29;20026;-78
2020/12/21 00:11:43;;;;;;;4.07;3.08;;;;;;;17.21;61.14;101880.63;4808636;29;20478;-78
2020/12/21 00:14:09;;;;;;;5.47;3.38;;;;;;;17.20;61.10;101872.78;4821869;29;20041;-78
2020/12/21 00:16:36;;;;;;;6.30;3.40;;;;;;;17.20;60.97;101876.28;4798559;29;20086;-78
2020/12/21 00:19:02;;;;;;;6.57;3.00;;;;;;;17.18;60.98;101878.00;4826000;29;20022;-78
2020/12/21 00:21:27;;;;;;;4.80;3.13;;;;;;;17.19;61.09;101865.88;4806267;29;20041;-78
2020/12/21 00:23:52;;;;;;;4.95;3.00;;;;;;;17.18;60.86;101867.59;4805114;29;20034;-78
2020/12/21 00:26:18;;;;;;;5.28;2.90;;;;;;;17.20;61.11;101870.19;4810882;29;20034;-78
2020/12/21 00:28:43;;;;;;;4.72;3.08;;;;;;;17.19;60.84;101863.25;4810038;29;20446;-78
2020/12/21 00:31:09;;;;;;;3.88;3.03;;;;;;;17.20;60.81;101862.38;4807737;29;20056;-78
2020/12/21 00:33:34;;;;;;;5.00;2.78;;;;;;;17.19;60.64;101868.47;4820598;29;20402;-78
2020/12/21 00:36:00;;;;;;;4.70;3.00;;;;;;;17.17;60.56;101868.44;4796027;29;20030;-78
2020/12/21 00:38:25;;;;;;;5.55;2.95;;;;;;;17.17;60.63;101863.25;4820510;29;20034;-78
2020/12/21 00:40:51;;;;;;;6.00;3.03;;;;;;;17.17;60.42;101865.84;4814271;29;22475;-77
2020/12/21 00:43:16;;;;;;;3.42;2.45;;;;;;;17.18;60.57;101858.91;4839159;29;20030;-78
2020/12/21 00:45:41;;;;;;;4.90;2.80;;;;;;;17.18;60.43;101866.72;4809046;29;20026;-78
2020/12/21 00:48:07;;;;;;;4.20;2.33;;;;;;;17.18;60.43;101858.91;4804738;29;20110;-78
2020/12/21 00:50:32;;;;;;;4.00;2.58;;;;;;;17.17;60.34;101858.03;4810758;29;20075;-78
2020/12/21 00:52:57;;;;;;;4.15;2.30;;;;;;;17.17;60.34;101850.25;4810042;29;20042;-78
2020/12/21 00:55:23;;;;;;;4.00;2.47;;;;;;;17.18;60.10;101858.91;4806881;29;20035;-78
2020/12/21 00:57:48;;;;;;;4.25;2.40;;;;;;;17.17;60.11;101860.63;4823230;29;20478;-78
2020/12/21 01:00:13;;;;;;;4.90;2.38;;;;;;;17.17;60.04;101855.44;4802200;29;20477;-78
2020/12/21 01:02:39;;;;;;;4.15;2.53;;;;;;;17.17;59.91;101854.56;4829693;29;20515;-78
2020/12/21 01:05:04;;;;;;;3.20;2.05;;;;;;;17.17;60.01;101855.44;4798552;29;20525;-78
2020/12/21 01:07:30;;;;;;;4.40;2.58;;;;;;;17.17;59.92;101852.84;4825196;29;20106;-78
2020/12/21 01:09:55;;;;;;;3.40;2.25;;;;;;;17.17;59.74;101849.38;4829198;29;20044;-78
2020/12/21 01:12:20;;;;;;;3.90;2.00;;;;;;;17.17;59.77;101846.78;4800331;29;20066;-78
2020/12/21 01:14:46;;;;;;;3.13;2.10;;;;;;;17.16;59.85;101851.09;4810368;29;21859;-78
2020/12/21 01:17:11;;;;;;;3.67;1.98;;;;;;;17.16;59.54;101850.22;4803125;29;20029;-78
2020/12/21 01:19:36;;;;;;;3.78;2.03;;;;;;;17.16;59.59;101852.81;4797287;29;20509;-78
2020/12/21 01:22:02;;;;;;;2.63;2.03;;;;;;;17.15;59.61;101851.94;4810424;29;20038;-78
2020/12/21 01:24:28;;;;;;;3.28;2.10;;;;;;;17.16;59.63;101861.50;4822868;29;20045;-78
2020/12/21 01:26:53;;;;;;;3.53;2.13;;;;;;;17.15;59.65;101856.28;4831649;29;20049;-78
2020/12/21 01:29:19;;;;;;;3.10;2.10;;;;;;;17.15;59.52;101851.94;4795664;29;20397;-78
2020/12/21 01:31:44;;;;;;;3.55;1.98;;;;;;;17.16;59.50;101852.81;4798728;29;20034;-78
2020/12/21 01:34:10;;;;;;;2.90;2.10;;;;;;;17.16;59.26;101853.72;4813617;29;20446;-78
2020/12/21 01:36:36;;;;;;;3.20;1.95;;;;;;;17.14;59.30;101850.22;4802521;29;20034;-78
2020/12/21 01:39:01;;;;;;;2.72;2.00;;;;;;;17.15;59.23;101857.16;4796415;29;20078;-77
2020/12/21 01:41:27;;;;;;;4.00;2.00;;;;;;;17.13;59.09;101858.88;4813907;29;20038;-78
2020/12/21 01:43:56;;;;;;;2.90;1.88;;;;;;;17.14;59.26;101867.56;4806322;29;20034;-78
2020/12/21 01:46:22;;;;;;;5.25;2.13;;;;;;;17.15;58.96;101867.56;4821272;29;20030;-78
2020/12/21 01:48:47;;;;;;;3.53;1.92;;;;;;;17.14;59.12;101857.16;4843133;29;20061;-77
2020/12/21 01:51:26;;;;;;;3.60;1.98;;;;;;;17.16;58.98;101863.22;4827137;29;20064;-77
2020/12/21 01:53:52;;;;;;;4.95;2.13;;;;;;;17.14;58.90;101862.38;4825883;29;20065;-77
2020/12/21 01:56:18;;;;;;;4.25;1.80;;;;;;;17.14;58.84;101863.22;4829478;29;20509;-77
2020/12/21 01:58:44;;;;;;;2.92;1.83;;;;;;;17.14;58.69;101870.16;4816262;29;20067;-79
2020/12/21 02:01:13;;;;;;;3.45;1.98;;;;;;;17.14;58.69;101868.44;4817387;29;20030;-78
2020/12/21 02:03:39;;;;;;;3.72;1.90;;;;;;;17.14;58.73;101871.03;4819231;29;20053;-78
2020/12/21 02:06:04;;;;;;;2.00;1.38;;;;;;;17.14;58.64;101875.38;4777462;29;20077;-78
2020/12/21 02:08:30;;;;;;;2.92;1.85;;;;;;;17.14;58.72;101872.78;4807733;29;20050;-78
2020/12/21 02:11:02;;;;;;;3.28;1.98;;;;;;;17.13;58.53;101878.81;4810065;29;20045;-77
2020/12/21 02:16:04;;;;;;;2.78;1.60;;;;;;;17.14;58.68;101881.44;5170862;24;20413;-78
2020/12/21 02:18:29;;;;;;;3.53;1.70;;;;;;;17.12;58.72;101872.75;4831401;29;20045;-78
2020/12/21 02:20:55;;;;;;;2.28;1.50;;;;;;;17.12;58.52;101870.16;4844984;29;20051;-78
2020/12/21 02:23:20;;;;;;;3.03;1.52;;;;;;;17.12;58.47;101864.94;4825154;29;20034;-78
2020/12/21 02:25:45;;;;;;;2.20;1.40;;;;;;;17.13;58.37;101856.25;4848369;29;20028;-78
2020/12/21 02:28:11;;;;;;;3.38;1.50;;;;;;;17.12;58.20;101856.28;4832094;29;20045;-78
2020/12/21 02:30:36;;;;;;;3.95;1.70;;;;;;;17.12;58.37;101856.28;4830411;29;20493;-78
2020/12/21 02:33:05;;;;;;;3.47;1.70;;;;;;;17.12;58.29;101849.34;4833369;29;20421;-78
2020/12/21 02:35:35;;;;;;;3.28;1.60;;;;;;;17.12;58.10;101858.88;4845749;29;20029;-78
2020/12/21 02:38:07;;;;;;;3.63;1.40;;;;;;;17.12;58.06;101851.06;4826975;29;20452;-78
2020/12/21 02:40:36;;;;;;;4.88;1.73;;;;;;;17.11;58.12;101857.13;4860505;29;20985;-78
2020/12/21 02:43:02;;;;;;;2.50;1.50;;;;;;;17.12;57.91;101858.88;4845315;29;20057;-78
2020/12/21 02:45:28;;;;;;;1.73;1.30;;;;;;;17.12;58.07;101864.06;4826732;29;20030;-78
2020/12/21 02:47:53;;;;;;;2.13;1.42;;;;;;;17.10;57.93;101856.25;4840413;29;20541;-78
2020/12/21 02:50:19;;;;;;;2.65;1.85;;;;;;;17.11;58.15;101857.13;4826940;29;20033;-77
2020/12/21 02:52:44;;;;;;;3.13;1.40;;;;;;;17.09;57.99;101851.03;4825894;29;20030;-78
2020/12/21 02:55:10;;;;;;;1.70;1.20;;;;;;;17.10;57.67;101858.84;4831585;29;20476;-78
2020/12/21 02:57:36;;;;;;;3.40;1.60;;;;;;;17.10;58.13;101850.19;4827903;29;20070;-78
2020/12/21 03:00:09;;;;;;;2.53;1.60;;;;;;;17.10;57.85;101852.78;4850576;29;20033;-78
2020/12/21 03:02:35;;;;;;;2.25;1.40;;;;;;;17.09;57.78;101851.91;4846136;29;20123;-78
2020/12/21 03:05:00;;;;;;;2.33;1.48;;;;;;;17.09;57.74;101851.03;4847991;29;20117;-78
2020/12/21 03:07:26;;;;;;;2.05;1.30;;;;;;;17.09;57.97;101851.03;4815815;29;20037;-78
2020/12/21 03:09:51;;;;;;;3.40;1.50;;;;;;;17.08;57.70;101841.50;4841424;29;20030;-78
2020/12/21 03:12:17;;;;;;;2.67;1.50;;;;;;;17.07;57.87;101851.00;4821710;29;20029;-78
2020/12/21 03:14:42;;;;;;;2.65;1.38;;;;;;;17.08;57.91;101844.09;4817679;29;20037;-78
2020/12/21 03:17:07;;;;;;;2.80;1.48;;;;;;;17.08;57.71;101838.91;4815422;29;20552;-78
2020/12/21 03:19:32;;;;;;;3.17;1.60;;;;;;;17.08;57.80;101854.50;4829236;29;20048;-78
2020/12/21 03:21:58;;;;;;;2.58;1.40;;;;;;;17.06;57.53;101844.94;4829780;29;20038;-77
2020/12/21 03:24:23;;;;;;;3.00;1.67;;;;;;;17.08;57.62;101851.91;4819330;29;20089;-78
2020/12/21 03:26:49;;;;;;;3.30;1.40;;;;;;;17.08;57.68;101862.31;4835008;29;20029;-78
2020/12/21 03:29:15;;;;;;;2.25;1.30;;;;;;;17.06;57.87;101863.16;4834754;29;20128;-78
2020/12/21 03:31:41;;;;;;;1.83;1.13;;;;;;;17.06;57.55;101867.47;4827152;29;20040;-78
2020/12/21 03:34:06;;;;;;;1.90;1.20;;;;;;;17.07;57.73;101866.59;4838217;29;20037;-78
2020/12/21 03:36:37;;;;;;;2.33;1.50;;;;;;;17.06;57.54;101867.47;4851791;29;20018;-83
2020/12/21 03:39:03;;;;;;;3.42;1.30;;;;;;;17.05;57.48;101863.16;4836990;29;20022;-83
2020/12/21 03:41:31;;;;;;;2.95;1.30;;;;;;;17.03;57.48;101852.72;4869281;29;20041;-83
2020/12/21 04:17:42;;;;;;;2.58;1.50;;;;;;;17.03;57.50;101818.06;5933577;23;20031;31
2020/12/21 04:20:08;;;;;;;2.53;1.17;;;;;;;17.01;57.38;101812.84;4800330;29;20047;-77
2020/12/21 04:23:15;;;;;;;2.17;1.20;;;;;;;17.01;57.23;101810.25;4811249;29;20077;-81
2020/12/21 04:36:11;;;;;;;1.90;1.13;;;;;;;17.00;57.18;101803.28;4726016;30;20052;-82
2020/12/21 04:38:39;;;;;;;1.88;1.20;;;;;;;17.01;57.21;101796.38;4702333;30;20401;-78
2020/12/21 04:41:04;;;;;;;2.63;1.10;;;;;;;17.00;57.21;101798.06;4714910;30;20485;-77
2020/12/21 04:43:32;;;;;;;2.00;1.08;;;;;;;17.00;57.21;101798.06;4711379;30;20093;-78
2020/12/21 04:46:07;;;;;;;3.08;1.30;;;;;;;16.99;57.10;101791.16;4713180;30;20100;-78
2020/12/21 04:48:40;;;;;;;3.53;1.35;;;;;;;16.99;56.96;101793.75;4712055;30;20034;-77
2020/12/21 04:51:07;;;;;;;2.15;1.35;;;;;;;16.98;56.96;101786.78;4698605;30;20041;-78
2020/12/21 04:53:33;;;;;;;1.95;1.10;;;;;;;16.99;57.27;101795.50;4694097;30;20192;-77
2020/12/21 04:56:00;;;;;;;2.63;1.08;;;;;;;16.97;57.04;101787.66;4716849;30;20037;-77
2020/12/21 04:58:25;;;;;;;1.85;1.05;;;;;;;16.98;57.15;101783.31;4715176;30;20079;-77
2020/12/21 05:00:51;;;;;;;1.77;1.10;;;;;;;16.99;56.93;101782.47;4698488;30;20452;-77
2020/12/21 05:03:16;;;;;;;2.00;1.27;;;;;;;16.97;57.21;101779.88;4699577;30;20060;-78
2020/12/21 05:05:43;;;;;;;2.22;1.20;;;;;;;16.97;57.08;101779.00;4720507;30;20080;-78
2020/12/21 05:08:22;;;;;;;2.55;1.30;;;;;;;16.98;57.11;101767.72;4718384;30;20028;-78
2020/12/21 05:11:04;;;;;;;3.80;1.27;;;;;;;16.98;57.06;101767.72;4781500;29;20031;-77
2020/12/21 05:13:31;;;;;;;2.13;1.15;;;;;;;16.97;57.25;101766.00;4787375;29;20046;-77
2020/12/21 05:15:58;;;;;;;1.77;1.17;;;;;;;16.97;57.10;101766.88;4792521;29;20038;-78
2020/12/21 05:18:28;;;;;;;2.25;1.30;;;;;;;16.96;57.01;101770.34;4794243;29;20431;-78
2020/12/21 05:21:04;;;;;;;2.80;1.15;;;;;;;16.96;57.10;101764.25;4785222;29;20035;-78
2020/12/21 05:23:31;;;;;;;4.30;1.10;;;;;;;16.96;57.00;101754.75;4787193;29;20050;-78
2020/12/21 05:26:07;;;;;;;1.60;1.00;;;;;;;16.95;56.83;101763.38;4785425;29;20488;-77
2020/12/21 05:28:35;;;;;;;1.67;0.90;;;;;;;16.95;56.95;101765.97;4796161;29;20058;-78
2020/12/21 05:31:03;;;;;;;2.30;1.08;;;;;;;16.95;57.17;101763.38;4784391;29;20031;-78
2020/12/21 05:33:28;;;;;;;2.85;0.98;;;;;;;16.95;56.85;101762.50;4788099;29;20035;-77
2020/12/21 05:36:06;;;;;;;1.88;1.02;;;;;;;16.95;56.95;101763.38;4786295;30;20114;-78
2020/12/21 05:38:36;;;;;;;2.10;1.20;;;;;;;16.94;57.07;101753.84;4789187;29;20035;-81
2020/12/21 05:41:12;;;;;;;2.58;0.98;;;;;;;16.95;56.98;101754.72;4793271;29;20118;-79
2020/12/21 05:43:40;;;;;;;2.08;1.00;;;;;;;16.95;56.95;101759.91;4828372;29;20042;-79
2020/12/21 05:46:08;;;;;;;1.20;0.80;;;;;;;16.96;57.18;101754.75;4806284;29;20063;-80
2020/12/21 05:48:36;;;;;;;2.17;1.10;;;;;;;16.97;57.05;101748.66;4788144;30;20062;-80
2020/12/21 05:51:04;;;;;;;1.25;0.90;;;;;;;17.01;57.15;101755.63;4788783;29;20141;-80
2020/12/21 05:53:43;;;;;;;3.00;0.90;;;;;;;17.02;57.19;101759.97;4787907;29;20732;-80
2020/12/21 05:56:10;;;;;;;5.30;0.88;;;;;;;17.03;56.93;101758.25;4802708;29;20399;-80
2020/12/21 05:58:37;;;;;;;1.80;0.80;;;;;;;17.04;56.94;101757.38;4771658;30;20391;-79
2020/12/21 06:01:08;;;;;;;1.55;0.90;;;;;;;17.03;57.14;101759.13;4788350;30;20050;-80
2020/12/21 06:03:54;;;;;;;1.90;0.95;;;;;;;17.05;57.08;101751.34;4805563;29;20037;-80
2020/12/21 06:06:25;;;;;;;1.92;0.90;;;;;;;17.06;56.95;101759.13;4798137;29;20081;-79
2020/12/21 06:09:02;;;;;;;3.58;0.98;;;;;;;17.07;56.90;101757.38;4789408;29;20035;-78
2020/12/21 06:11:39;;;;;;;2.90;1.00;;;;;;;17.09;57.08;101763.47;4809530;29;20034;-81
2020/12/21 06:14:15;;;;;;;3.53;1.25;;;;;;;17.11;57.15;101751.34;4802590;29;20063;-80
2020/12/21 06:23:46;;;;;;;10.82;1.92;;;;;;;17.09;57.41;101745.25;5743146;24;20021;-77
2020/12/21 06:26:13;;;;;;;5.65;1.60;;;;;;;17.08;57.54;101746.13;4828180;29;20069;-76
2020/12/21 06:28:57;;;;;;;3.60;1.50;;;;;;;17.09;57.43;101739.19;4828090;29;20371;-81
2020/12/21 06:31:22;;;;;;;12.63;1.63;;;;;;;17.08;57.72;101737.47;4843691;29;20378;-77
2020/12/21 06:33:48;;;;;;;2.33;1.27;;;;;;;17.11;57.85;101737.47;4845084;29;20044;-79
2020/12/21 06:36:14;;;;;;;11.02;1.70;;;;;;;17.14;57.84;101740.13;4832879;29;20041;-80
2020/12/21 06:38:42;;;;;;;5.22;1.50;;;;;;;17.14;57.73;101738.38;4832861;29;20041;-80
2020/12/21 06:41:16;;;;;;;6.38;1.40;;;;;;;17.15;57.78;101744.44;4850337;29;20485;-79
2020/12/21 06:43:53;;;;;;;4.25;1.35;;;;;;;17.15;57.69;101747.91;4844710;29;20038;-80
2020/12/21 06:46:19;;;;;;;10.75;1.60;;;;;;;17.15;57.65;101753.13;4845375;29;20034;-80
2020/12/21 06:48:49;;;;;;;4.00;1.48;;;;;;;17.14;57.74;101750.53;4830530;29;20044;-79
2020/12/21 06:51:17;;;;;;;3.08;1.30;;;;;;;17.14;57.61;101746.19;4829246;29;20073;-79
2020/12/21 06:53:56;;;;;;;4.10;1.45;;;;;;;17.14;57.78;101741.00;4846056;29;20384;-80
2020/12/21 06:56:22;;;;;;;4.35;1.70;;;;;;;17.15;57.89;101741.84;4842743;29;20033;-81
2020/12/21 06:58:49;;;;;;;3.50;1.27;;;;;;;17.14;57.57;101735.78;4840987;29;20068;-78
2020/12/21 07:01:17;;;;;;;3.45;1.30;;;;;;;17.15;57.79;101739.25;4813607;29;20037;-79
2020/12/21 07:03:43;;;;;;;3.03;1.50;;;;;;;17.14;57.88;101727.97;4819493;29;20040;-80
2020/12/21 07:06:08;;;;;;;3.30;1.65;;;;;;;17.14;57.89;101722.78;4835934;29;20037;-80
2020/12/21 07:12:18;;;;;;;12.10;2.28;;;;;;;17.16;58.00;101727.97;4818416;29;20050;-82
2020/12/21 07:14:43;;;;;;;5.60;2.65;;;;;;;17.13;57.94;101723.63;4788294;29;20157;-80
2020/12/21 07:17:15;;;;;;;5.53;2.92;;;;;;;17.15;57.79;101734.03;4789657;29;20558;-79
2020/12/21 07:19:42;;;;;;;6.55;2.80;;;;;;;17.14;57.92;101725.38;4789628;29;20035;-79
2020/12/21 07:22:09;;;;;;;5.72;3.20;;;;;;;17.15;57.85;101721.03;4789985;29;20051;-81
2020/12/21 07:24:35;;;;;;;5.07;2.90;;;;;;;17.16;57.86;101720.16;4778744;29;20058;-80
2020/12/21 07:27:01;;;;;;;5.30;3.10;;;;;;;17.15;57.88;101711.50;4789835;29;20042;-79
2020/12/21 07:29:37;;;;;;;6.40;3.00;;;;;;;17.15;57.78;101708.03;4794219;29;20047;-81
2020/12/21 07:32:04;;;;;;;4.80;3.15;;;;;;;17.16;57.80;101712.38;4803083;29;20037;-82
2020/12/21 07:34:30;;;;;;;4.82;3.05;;;;;;;17.16;58.11;101696.75;4801312;29;20031;-82
2020/12/21 07:36:56;;;;;;;5.40;2.90;;;;;;;17.16;57.80;101702.84;4797076;29;20077;-83
2020/12/21 07:39:22;;;;;;;7.25;3.33;;;;;;;17.16;58.13;101697.66;4793616;29;20138;-81
2020/12/21 07:41:53;;;;;;;4.55;3.00;;;;;;;17.16;57.88;101695.06;4803083;29;20043;-81
2020/12/21 07:44:36;;;;;;;7.60;3.08;;;;;;;17.17;57.83;101695.91;4791860;29;20056;-81
2020/12/21 07:47:15;;;;;;;4.88;2.92;;;;;;;17.16;57.77;101691.56;4797342;29;20125;-81
2020/12/21 07:49:41;;;;;;;6.38;2.60;;;;;;;17.16;58.03;101697.66;4829669;29;20026;-81
2020/12/21 07:52:09;;;;;;;4.88;2.92;;;;;;;17.16;57.86;101692.44;4828378;29;20037;-81
2020/12/21 07:54:39;;;;;;;5.50;2.70;;;;;;;17.17;58.08;101688.13;4852102;29;20091;-81
2020/12/21 07:57:07;;;;;;;4.93;2.88;;;;;;;17.16;57.67;101678.56;4850400;29;20037;-81
2020/12/21 07:59:32;;;;;;;5.95;2.85;;;;;;;17.17;57.55;101675.09;4830407;29;20041;-81
2020/12/21 08:02:03;;;;;;;5.05;2.88;;;;;;;17.16;57.74;101681.16;4807773;29;20026;-81
2020/12/21 08:04:29;;;;;;;5.30;3.10;;;;;;;17.18;57.76;101682.94;4856064;29;20040;-81
2020/12/21 08:07:14;;;;;;;5.70;2.63;;;;;;;17.18;57.78;101685.53;4852320;29;20041;-80
2020/12/21 08:10:06;;;;;;;5.05;2.45;;;;;;;17.19;57.58;101683.78;4818337;29;20055;-80
2020/12/21 08:12:33;;;;;;;4.03;2.45;;;;;;;17.19;57.66;101676.00;4797174;29;20035;-80
2020/12/21 08:15:00;;;;;;;5.93;2.85;;;;;;;17.19;57.85;101678.59;4799217;29;20408;-78
2020/12/21 08:17:28;;;;;;;3.65;2.30;;;;;;;17.19;57.66;101669.03;4798542;29;20043;-79
2020/12/21 08:19:55;;;;;;;3.88;2.33;;;;;;;17.19;57.71;101663.84;4775033;29;20099;-81
2020/12/21 08:22:25;;;;;;;5.03;2.70;;;;;;;17.20;57.74;101665.59;4792269;29;20098;-82
2020/12/21 08:25:10;;;;;;;4.57;2.17;;;;;;;17.21;57.59;101656.06;4788167;30;20135;-80
2020/12/21 08:27:42;;;;;;;4.05;2.33;;;;;;;17.21;57.86;101656.06;4797772;29;20034;-80
2020/12/21 08:30:13;;;;;;;3.38;2.22;;;;;;;17.21;57.83;101656.06;4790014;29;20071;-80
2020/12/21 08:32:39;;;;;;;4.82;2.42;;;;;;;17.22;57.67;101655.19;4801263;29;20071;-80
2020/12/21 08:35:05;;;;;;;3.95;2.00;;;;;;;17.22;57.98;101656.06;4793095;29;20176;-81
2020/12/21 08:37:31;;;;;;;3.90;2.22;;;;;;;17.22;57.49;101650.88;4807503;29;20100;-80
2020/12/21 08:40:10;;;;;;;3.92;2.10;;;;;;;17.22;57.63;101647.38;4818019;29;20435;-80
2020/12/21 08:42:36;;;;;;;5.00;2.80;;;;;;;17.22;57.79;101642.19;4830787;29;20098;-80
2020/12/21 08:45:01;;;;;;;3.40;2.25;;;;;;;17.24;57.72;101649.13;4829050;29;20062;-80
2020/12/21 08:47:26;;;;;;;4.03;2.33;;;;;;;17.23;57.89;101639.59;4824426;29;20041;-80
2020/12/21 08:49:52;;;;;;;3.15;1.90;;;;;;;17.22;57.65;101622.25;4826599;29;20044;-80
2020/12/21 08:52:17;;;;;;;4.15;2.08;;;;;;;17.22;57.64;101622.25;4802831;29;20034;-79
2020/12/21 08:54:42;;;;;;;3.35;1.95;;;;;;;17.25;57.85;101619.66;4809871;29;20033;-78
2020/12/21 08:57:08;;;;;;;4.15;2.17;;;;;;;17.24;57.85;101622.25;4811627;29;20511;-79
2020/12/21 08:59:33;;;;;;;3.90;1.67;;;;;;;17.25;57.55;101608.41;4813477;29;20030;-79
2020/12/21 09:01:59;;;;;;;3.38;1.95;;;;;;;17.25;57.58;101603.19;4809434;29;20041;-79
2020/12/21 09:04:24;;;;;;;3.90;2.03;;;;;;;17.25;57.53;101598.00;4795659;29;20030;-78
2020/12/21 09:06:49;;;;;;;2.97;2.00;;;;;;;17.26;57.45;101605.78;4792377;29;20125;-78
2020/12/21 09:09:15;;;;;;;2.60;1.73;;;;;;;17.26;57.43;101608.38;4818426;29;20109;-78
2020/12/21 09:11:40;;;;;;;2.83;1.63;;;;;;;17.26;57.52;101610.13;4815323;29;20046;-79
2020/12/21 09:14:05;;;;;;;2.65;1.70;;;;;;;17.26;57.57;101604.91;4811344;29;20042;-78
2020/12/21 09:16:31;;;;;;;3.15;1.95;;;;;;;17.26;57.45;101603.19;4823627;29;20049;-78
2020/12/21 09:18:58;;;;;;;3.20;2.03;;;;;;;17.27;57.56;101604.94;4815909;29;20046;-79
2020/12/21 09:21:27;;;;;;;2.67;1.70;;;;;;;17.26;57.50;101603.19;4814986;29;20045;-78
2020/12/21 09:23:55;;;;;;;2.92;1.73;;;;;;;17.28;57.60;101603.19;4825030;29;20053;-79
2020/12/21 09:26:21;;;;;;;2.92;1.45;;;;;;;17.27;57.52;101602.34;4835717;29;20030;-79
2020/12/21 09:28:48;;;;;;;3.03;1.92;;;;;;;17.28;57.42;101605.78;4842028;29;20105;-78
2020/12/21 09:31:15;;;;;;;3.58;1.88;;;;;;;17.29;57.76;101607.56;4841957;29;20120;-78
2020/12/21 09:33:41;;;;;;;3.58;1.70;;;;;;;17.28;57.73;101604.06;4842013;29;20032;-78
2020/12/21 09:36:07;;;;;;;3.05;2.08;;;;;;;17.28;57.53;101595.38;4799008;29;20124;-78
2020/12/21 09:38:32;;;;;;;2.25;1.50;;;;;;;17.30;57.24;101595.41;4830179;29;20034;-78
2020/12/21 09:40:57;;;;;;;3.15;1.67;;;;;;;17.30;57.53;101590.19;4831294;29;20072;-78
2020/12/21 09:43:23;;;;;;;3.35;1.80;;;;;;;17.30;57.33;101585.84;4812047;29;20074;-78
2020/12/21 09:45:49;;;;;;;2.17;1.55;;;;;;;17.30;57.50;101585.84;4846209;29;20030;-78
2020/12/21 09:48:14;;;;;;;2.33;1.58;;;;;;;17.31;57.48;101568.50;4811037;29;20378;-78
2020/12/21 09:50:39;;;;;;;2.25;1.50;;;;;;;17.31;57.46;101563.31;4844982;29;20098;-78
2020/12/21 09:53:05;;;;;;;2.53;1.65;;;;;;;17.32;57.06;101559.84;4812286;29;20038;-77
2020/12/21 09:55:30;;;;;;;3.58;1.80;;;;;;;17.32;57.47;101559.84;4830735;29;20375;-78
2020/12/21 09:57:56;;;;;;;3.33;1.92;;;;;;;17.32;57.56;101557.25;4830831;29;20545;-78
2020/12/21 10:00:21;;;;;;;3.17;1.92;;;;;;;17.30;57.37;101554.63;4829615;29;20470;-78
2020/12/21 10:02:47;;;;;;;5.38;2.20;;;;;;;17.31;57.41;101548.59;4812592;29;20030;-78
2020/12/21 10:05:12;;;;;;;4.35;2.17;;;;;;;17.32;57.59;101555.50;4827595;29;20533;-78
2020/12/21 10:07:37;;;;;;;3.92;1.98;;;;;;;17.33;57.41;101552.03;4827934;29;20494;-79
2020/12/21 10:10:03;;;;;;;4.57;1.85;;;;;;;17.33;57.38;101549.44;4837693;29;20101;-78
2020/12/21 10:12:28;;;;;;;3.45;1.80;;;;;;;17.33;57.45;101545.97;4818291;29;20397;-79
2020/12/21 10:14:54;;;;;;;3.40;1.83;;;;;;;17.34;57.55;101532.97;4826664;29;20030;-78
2020/12/21 10:17:19;;;;;;;3.75;1.90;;;;;;;17.33;57.49;101523.41;4828063;29;20132;-78
2020/12/21 10:19:44;;;;;;;3.35;1.88;;;;;;;17.34;57.43;101517.38;4812528;29;20030;-78
2020/12/21 10:22:10;;;;;;;4.78;2.15;;;;;;;17.34;57.50;101516.50;4841961;29;20048;-78
2020/12/21 10:24:35;;;;;;;4.97;1.92;;;;;;;17.35;57.27;101513.88;4818750;29;20058;-78
2020/12/21 10:27:01;;;;;;;3.67;1.98;;;;;;;17.35;57.14;101500.03;4824229;29;20037;-78
2020/12/21 10:29:27;;;;;;;4.85;1.83;;;;;;;17.35;57.42;101490.47;4794112;29;20066;-78
2020/12/21 10:31:52;;;;;;;3.30;1.90;;;;;;;17.35;57.59;101482.66;4812518;29;20508;-79
2020/12/21 10:34:17;;;;;;;2.67;1.48;;;;;;;17.35;57.42;101471.41;4841446;29;20121;-78
2020/12/21 10:36:48;;;;;;;4.00;1.88;;;;;;;17.36;57.35;101465.34;4829932;29;20054;-79
2020/12/21 10:39:14;;;;;;;3.55;1.80;;;;;;;17.37;57.47;101467.94;4812936;29;20038;-79
2020/12/21 10:41:39;;;;;;;2.80;1.50;;;;;;;17.42;57.46;101452.31;4830204;29;20040;-80
2020/12/21 10:44:05;;;;;;;4.82;2.47;;;;;;;17.60;57.63;101461.91;4831627;29;20030;-79
2020/12/21 10:46:30;;;;;;;5.47;1.90;;;;;;;17.69;57.84;101462.75;4833806;29;22066;-79
2020/12/21 10:48:56;;;;;;;3.28;1.77;;;;;;;17.67;57.92;101464.50;4799210;29;20121;-79
2020/12/21 10:51:28;;;;;;;6.07;1.70;;;;;;;17.62;58.01;101455.81;4848660;29;20037;-81
2020/12/21 10:54:31;;;;;;;4.38;1.85;;;;;;;17.58;58.09;101448.88;4852572;29;20052;-77
2020/12/21 10:57:16;;;;;;;3.95;1.90;;;;;;;17.56;58.17;101428.94;4831440;29;20034;-79
2020/12/21 10:59:41;;;;;;;2.72;1.50;;;;;;;17.53;58.13;101429.81;4828567;29;20039;-81
2020/12/21 11:02:06;;;;;;;2.45;1.42;;;;;;;17.51;57.91;101417.63;4844835;29;20041;-80
2020/12/21 11:04:32;;;;;;;3.33;1.63;;;;;;;17.48;57.90;101411.59;4844822;29;20045;-80
2020/12/21 11:06:58;;;;;;;3.13;1.60;;;;;;;17.48;57.95;101405.50;4813354;29;20038;-80
2020/12/21 11:09:23;;;;;;;2.50;1.35;;;;;;;17.49;58.02;101409.84;4837456;29;20040;-80
2020/12/21 11:11:50;;;;;;;3.40;1.90;;;;;;;17.48;58.02;101403.78;4828300;29;20163;-80
2020/12/21 11:15:08;;;;;;;2.50;1.30;;;;;;;17.49;58.11;101399.44;4849364;29;20030;-81
2020/12/21 11:24:29;;;;;;;1.92;1.30;;;;;;;17.50;58.25;101371.69;4838921;29;20056;-82
2020/12/21 11:27:12;;;;;;;3.45;1.80;;;;;;;17.50;58.17;101354.31;4854346;29;20065;-82
2020/12/21 11:30:14;;;;;;;2.47;1.50;;;;;;;17.51;58.12;101353.47;4812065;29;20096;-82
2020/12/21 11:32:42;;;;;;;2.72;1.55;;;;;;;17.50;58.28;101337.84;4841200;29;20580;-82
2020/12/21 11:35:08;;;;;;;1.85;1.27;;;;;;;17.49;58.01;101323.97;4840847;29;20034;-82
2020/12/21 11:37:39;;;;;;;2.80;1.48;;;;;;;17.49;58.63;101318.78;4824458;29;20068;-82
2020/12/21 11:40:34;;;;;;;2.08;1.27;;;;;;;17.48;58.20;101317.03;4855560;29;20084;-82
2020/12/21 11:43:09;;;;;;;3.03;1.50;;;;;;;17.48;58.41;101312.72;4857496;29;20026;-82
2020/12/21 11:46:13;;;;;;;2.83;1.27;;;;;;;17.47;58.41;101302.31;4827960;29;20037;-82
2020/12/21 11:49:42;;;;;;;2.20;1.27;;;;;;;17.46;58.45;101305.75;4843887;29;20030;-82
2020/12/21 11:52:09;;;;;;;1.77;1.30;;;;;;;17.44;58.39;101295.38;4836274;29;20034;-82
2020/12/21 11:54:37;;;;;;;2.83;1.15;;;;;;;17.43;58.79;101292.75;4818840;29;20145;-82
2020/12/21 11:57:04;;;;;;;1.80;1.30;;;;;;;17.42;59.00;101284.09;4826328;29;20050;-82
2020/12/21 11:59:31;;;;;;;2.08;1.30;;;;;;;17.41;58.44;101281.50;4810484;29;20034;-82
2020/12/21 12:02:09;;;;;;;2.15;1.15;;;;;;;17.40;58.88;101270.22;4818244;29;20617;-82
2020/12/21 12:11:27;;;;;;;2.30;1.30;;;;;;;17.37;59.05;101241.59;4803642;30;20064;-82
2020/12/21 12:14:12;;;;;;;2.00;1.10;;;;;;;17.38;59.17;101235.53;4784002;29;20113;-81
2020/12/21 12:17:21;;;;;;;2.08;1.25;;;;;;;17.38;59.37;101221.69;4791629;29;20053;-81
2020/12/21 12:19:49;;;;;;;2.33;1.30;;;;;;;17.40;59.13;101217.34;4788006;29;20083;-81
2020/12/21 12:22:14;;;;;;;1.83;1.17;;;;;;;17.39;59.09;101211.25;4781411;30;20126;-81
2020/12/21 12:24:40;;;;;;;2.85;1.40;;;;;;;17.41;59.31;101211.25;4775726;30;20110;-82
2020/12/21 12:27:05;;;;;;;76.70;52.83;;;;;;;17.43;59.33;101199.09;4767826;30;20060;-81
2020/12/21 12:29:30;;;;;;;66.15;46.03;;;;;;;17.44;59.18;101188.69;4771643;30;20072;-81
2020/12/21 12:31:56;;;;;;;62.88;44.53;;;;;;;17.45;59.03;101205.16;4774473;30;20046;-81
2020/12/21 12:34:21;;;;;;;55.92;38.78;;;;;;;17.45;59.00;101207.78;4775048;29;20023;-81
2020/12/21 12:36:48;;;;;;;52.30;35.92;;;;;;;17.47;58.95;101198.22;4790493;29;20041;-81
2020/12/21 12:39:13;;;;;;;52.70;35.17;;;;;;;17.45;59.04;101186.97;4822045;29;20030;-81
2020/12/21 12:41:41;;;;;;;43.72;32.47;;;;;;;17.45;59.26;101169.59;4807000;29;20550;-80
2020/12/21 12:44:07;;;;;;;44.72;31.95;;;;;;;17.48;59.21;101166.13;4807723;29;20038;-80